createdAt,value
2022-09-21T00:01:12.112Z,3.35
2022-09-21T00:03:41.285Z,3.58
2022-09-21T00:06:20.479Z,3.83
2022-09-21T00:08:47.934Z,3.75
2022-09-21T00:11:17.242Z,4.10
2022-09-21T00:13:46.647Z,4.38
2022-09-21T00:16:15.934Z,4.18
2022-09-21T00:18:43.313Z,4.45
2022-09-21T00:21:13.060Z,4.40
2022-09-21T00:23:40.239Z,4.72
2022-09-21T00:26:16.901Z,4.60
2022-09-21T00:28:44.682Z,4.80
2022-09-21T00:31:14.732Z,4.22
2022-09-21T00:33:43.536Z,4.43
2022-09-21T00:36:13.653Z,4.45
2022-09-21T00:38:40.983Z,4.55
2022-09-21T00:41:09.383Z,4.35
2022-09-21T00:43:38.431Z,4.82
2022-09-21T00:46:14.409Z,4.80
2022-09-21T00:48:41.600Z,5.10
2022-09-21T00:51:09.123Z,4.75
2022-09-21T00:53:38.174Z,5.20
2022-09-21T00:56:06.705Z,5.15
2022-09-21T00:58:42.417Z,5.00
2022-09-21T01:01:10.896Z,5.28
2022-09-21T01:03:39.659Z,4.85
2022-09-21T01:06:06.433Z,5.35
2022-09-21T01:08:34.321Z,5.43
2022-09-21T01:11:17.319Z,5.32
2022-09-21T01:14:28.587Z,5.57
2022-09-21T01:17:12.065Z,5.10
2022-09-21T01:20:16.574Z,5.55
2022-09-21T01:22:46.318Z,5.82
2022-09-21T01:25:28.301Z,6.32
2022-09-21T01:28:30.315Z,6.25
2022-09-21T01:31:01.175Z,6.45
2022-09-21T01:33:33.393Z,6.07
2022-09-21T01:36:06.319Z,5.25
2022-09-21T01:38:38.814Z,5.85
2022-09-21T01:41:08.854Z,5.90
2022-09-21T01:43:40.391Z,5.65
2022-09-21T01:46:13.819Z,5.68
2022-09-21T01:48:45.000Z,6.65
2022-09-21T01:51:15.296Z,6.05
2022-09-21T01:53:51.344Z,6.80
2022-09-21T01:56:24.716Z,7.85
2022-09-21T01:59:03.399Z,7.05
2022-09-21T02:01:33.993Z,6.95
2022-09-21T02:04:08.078Z,7.57
2022-09-21T02:06:35.467Z,6.63
2022-09-21T02:09:02.190Z,6.97
2022-09-21T02:11:28.962Z,7.30
2022-09-21T02:13:56.335Z,7.65
2022-09-21T02:16:23.186Z,6.85
2022-09-21T02:19:14.434Z,6.53
2022-09-21T02:21:58.037Z,6.80
2022-09-21T02:24:50.640Z,6.40
2022-09-21T02:27:39.798Z,6.60
2022-09-21T02:30:18.010Z,6.95
2022-09-21T02:32:51.282Z,6.50
2022-09-21T02:35:21.013Z,7.10
2022-09-21T02:37:56.839Z,8.60
2022-09-21T02:40:40.703Z,7.82
2022-09-21T02:43:21.666Z,6.97
2022-09-21T02:45:54.427Z,6.88
2022-09-21T02:48:32.255Z,6.70
2022-09-21T02:51:07.275Z,6.38
2022-09-21T02:53:36.997Z,7.85
2022-09-21T02:56:07.324Z,7.30
2022-09-21T02:58:41.247Z,9.00
2022-09-21T03:01:11.613Z,9.05
2022-09-21T03:03:38.691Z,10.05
2022-09-21T03:06:05.603Z,8.68
2022-09-21T03:08:32.409Z,9.40
2022-09-21T03:10:59.286Z,8.75
2022-09-21T03:13:25.988Z,9.30
2022-09-21T03:16:00.751Z,9.88
2022-09-21T03:18:27.504Z,9.15
2022-09-21T03:20:54.205Z,9.10
2022-09-21T03:23:21.146Z,9.55
2022-09-21T03:25:47.990Z,9.40
2022-09-21T03:28:16.126Z,10.52
2022-09-21T03:30:43.608Z,11.10
2022-09-21T03:33:10.922Z,12.25
2022-09-21T03:35:37.885Z,10.38
2022-09-21T03:38:04.659Z,9.85
2022-09-21T03:40:32.468Z,9.75
2022-09-21T03:42:59.242Z,10.88
2022-09-21T03:45:29.109Z,11.15
2022-09-21T03:48:01.276Z,10.43
2022-09-21T03:50:29.185Z,11.85
2022-09-21T03:52:56.861Z,10.45
2022-09-21T03:55:24.145Z,9.18
2022-09-21T03:57:50.896Z,10.48
2022-09-21T04:00:18.114Z,10.00
2022-09-21T04:02:45.136Z,12.07
2022-09-21T04:05:14.912Z,10.45
2022-09-21T04:07:48.037Z,11.35
2022-09-21T04:10:17.747Z,12.38
2022-09-21T04:12:45.916Z,13.07
2022-09-21T04:15:14.990Z,14.07
2022-09-21T04:17:42.282Z,12.77
2022-09-21T04:20:09.624Z,14.55
2022-09-21T04:22:41.138Z,12.50
2022-09-21T04:25:10.595Z,13.07
2022-09-21T04:27:37.501Z,14.07
2022-09-21T04:30:05.319Z,12.77
2022-09-21T04:32:32.208Z,13.43
2022-09-21T04:34:58.942Z,12.52
2022-09-21T04:37:25.703Z,12.23
2022-09-21T04:39:52.405Z,11.75
2022-09-21T04:42:19.225Z,11.68
2022-09-21T04:44:46.786Z,12.43
2022-09-21T04:47:13.486Z,12.13
2022-09-21T04:49:40.322Z,13.18
2022-09-21T04:52:07.063Z,13.95
2022-09-21T04:54:33.804Z,13.18
2022-09-21T04:57:00.536Z,11.82
2022-09-21T04:59:27.275Z,13.27
2022-09-21T05:01:54.122Z,11.18
2022-09-21T05:04:20.849Z,10.77
2022-09-21T05:06:47.573Z,11.50
2022-09-21T05:09:32.800Z,10.50
2022-09-21T05:11:59.527Z,12.20
2022-09-21T05:14:26.449Z,10.73
2022-09-21T05:16:53.236Z,12.75
2022-09-21T05:19:19.970Z,14.90
2022-09-21T05:21:46.683Z,15.73
2022-09-21T05:24:13.490Z,15.85
2022-09-21T05:26:40.192Z,12.50
2022-09-21T05:29:07.400Z,12.95
2022-09-21T05:31:51.613Z,13.98
2022-09-21T05:34:51.803Z,11.70
2022-09-21T05:37:37.969Z,14.07
2022-09-21T05:40:05.965Z,17.48
2022-09-21T05:42:33.349Z,16.48
2022-09-21T05:45:00.550Z,15.15
2022-09-21T05:47:57.687Z,15.15
2022-09-21T05:50:43.181Z,16.73
2022-09-21T05:53:18.981Z,15.73
2022-09-21T05:56:11.759Z,16.05
2022-09-21T05:59:16.098Z,16.45
2022-09-21T06:02:00.978Z,16.13
2022-09-21T06:04:28.330Z,16.60
2022-09-21T06:06:55.109Z,15.98
2022-09-21T06:09:21.925Z,14.30
2022-09-21T06:11:48.864Z,11.48
2022-09-21T06:14:15.673Z,12.73
2022-09-21T06:16:43.546Z,13.05
2022-09-21T06:19:13.794Z,12.50
2022-09-21T06:21:40.679Z,12.43
2022-09-21T06:24:07.700Z,12.93
2022-09-21T06:26:34.864Z,9.52
2022-09-21T06:29:01.667Z,11.80
2022-09-21T06:31:28.580Z,10.90
2022-09-21T06:33:55.426Z,11.30
2022-09-21T06:36:22.390Z,9.85
2022-09-21T06:38:49.096Z,10.30
2022-09-21T06:41:20.846Z,12.02
2022-09-21T06:43:48.239Z,12.60
2022-09-21T06:46:15.053Z,13.25
2022-09-21T06:48:41.847Z,11.07
2022-09-21T06:51:09.974Z,8.98
2022-09-21T06:53:36.775Z,7.57
2022-09-21T06:56:08.711Z,7.32
2022-09-21T06:58:37.532Z,6.13
2022-09-21T07:01:09.254Z,5.22
2022-09-21T07:03:36.711Z,5.05
2022-09-21T07:06:03.717Z,4.70
2022-09-21T07:11:17.523Z,4.40
2022-09-21T07:13:45.559Z,4.55
2022-09-21T07:16:12.675Z,4.45
2022-09-21T07:18:44.242Z,4.78
2022-09-21T07:21:11.953Z,4.07
2022-09-21T07:23:38.978Z,4.22
2022-09-21T07:26:08.582Z,4.30
2022-09-21T07:28:36.125Z,4.90
2022-09-21T07:31:08.843Z,4.45
2022-09-21T07:33:36.322Z,3.20
2022-09-21T07:36:10.110Z,3.30
2022-09-21T07:38:39.786Z,3.90
2022-09-21T07:41:11.488Z,3.53
2022-09-21T07:43:40.277Z,3.63
2022-09-21T07:46:11.142Z,3.47
2022-09-21T07:48:38.252Z,3.80
2022-09-21T07:51:07.663Z,3.75
2022-09-21T07:53:35.956Z,3.20
2022-09-21T07:56:17.376Z,3.70
2022-09-21T07:59:03.265Z,3.55
2022-09-21T08:01:31.016Z,3.30
2022-09-21T08:03:58.894Z,3.90
2022-09-21T08:06:28.260Z,4.68
2022-09-21T08:08:57.760Z,3.38
2022-09-21T08:11:26.158Z,3.30
2022-09-21T08:13:54.779Z,2.70
2022-09-21T08:16:21.799Z,3.00
2022-09-21T08:18:48.654Z,2.85
2022-09-21T08:21:15.613Z,3.33
2022-09-21T08:23:43.091Z,2.45
2022-09-21T08:26:19.006Z,2.50
2022-09-21T08:28:49.861Z,2.78
2022-09-21T08:31:19.679Z,2.83
2022-09-21T08:33:47.803Z,2.53
2022-09-21T08:36:14.715Z,2.30
2022-09-21T08:38:41.548Z,2.63
2022-09-21T08:41:20.602Z,2.33
2022-09-21T08:43:55.550Z,2.40
2022-09-21T08:46:28.757Z,2.90
2022-09-21T08:49:21.237Z,2.47
2022-09-21T08:51:56.301Z,2.50
2022-09-21T08:54:47.126Z,2.30
2022-09-21T08:57:15.369Z,2.58
2022-09-21T08:59:46.213Z,2.25
2022-09-21T09:02:40.424Z,2.30
2022-09-21T09:05:19.607Z,2.10
2022-09-21T09:08:18.040Z,2.42
2022-09-21T09:11:13.431Z,2.22
2022-09-21T09:13:46.067Z,2.50
2022-09-21T09:16:40.446Z,2.10
2022-09-21T09:19:21.939Z,2.30
2022-09-21T09:21:49.087Z,1.70
2022-09-21T09:24:30.470Z,2.03
2022-09-21T09:27:09.523Z,1.65
2022-09-21T09:30:03.694Z,2.00
2022-09-21T09:32:53.155Z,2.38
2022-09-21T09:35:46.094Z,1.65
2022-09-21T09:38:26.710Z,1.90
2022-09-21T09:41:31.278Z,1.35
2022-09-21T09:44:00.716Z,1.40
2022-09-21T09:46:53.159Z,1.48
2022-09-21T09:49:34.495Z,1.77
2022-09-21T09:52:01.823Z,1.00
2022-09-21T09:54:33.891Z,0.90
2022-09-21T09:57:04.197Z,1.10
2022-09-21T09:59:40.054Z,1.00
2022-09-21T10:02:20.275Z,1.00
2022-09-21T10:05:06.352Z,0.90
2022-09-21T10:07:39.224Z,0.85
2022-09-21T10:10:26.224Z,0.98
2022-09-21T10:12:53.386Z,1.00
2022-09-21T10:15:23.467Z,0.90
2022-09-21T10:18:11.155Z,1.00
2022-09-21T10:20:38.092Z,1.08
2022-09-21T10:23:05.322Z,1.20
2022-09-21T10:25:33.963Z,1.50
2022-09-21T10:28:05.992Z,1.00
2022-09-21T10:30:34.526Z,1.35
2022-09-21T10:33:01.755Z,1.20
2022-09-21T10:35:28.834Z,1.30
2022-09-21T10:38:21.299Z,1.33
2022-09-21T10:40:50.153Z,1.30
2022-09-21T10:43:37.593Z,1.10
2022-09-21T10:46:06.719Z,0.93
2022-09-21T10:48:33.676Z,0.82
2022-09-21T10:51:00.445Z,0.90
2022-09-21T10:53:37.185Z,0.93
2022-09-21T10:56:16.622Z,0.82
2022-09-21T10:59:11.153Z,1.00
2022-09-21T11:01:44.633Z,0.70
2022-09-21T11:04:34.389Z,0.98
2022-09-21T11:07:19.672Z,0.80
2022-09-21T11:10:03.449Z,0.88
2022-09-21T11:12:33.155Z,1.08
2022-09-21T11:15:12.228Z,0.77
2022-09-21T11:18:02.663Z,1.10
2022-09-21T11:20:47.533Z,1.00
2022-09-21T11:23:51.203Z,0.77
2022-09-21T11:26:40.716Z,0.65
2022-09-21T11:31:58.342Z,0.65
2022-09-21T11:34:54.933Z,0.65
2022-09-21T11:37:50.984Z,0.73
2022-09-21T11:40:43.620Z,0.55
2022-09-21T11:43:29.542Z,0.68
2022-09-21T11:46:17.546Z,0.77
2022-09-21T11:49:21.226Z,0.57
2022-09-21T11:52:09.184Z,0.73
2022-09-21T11:55:05.188Z,0.60
2022-09-21T11:57:51.603Z,0.98
2022-09-21T12:00:22.884Z,0.50
2022-09-21T12:03:01.530Z,0.57
2022-09-21T12:06:13.804Z,0.70
2022-09-21T12:08:40.514Z,0.57
2022-09-21T12:11:24.829Z,0.65
2022-09-21T12:14:01.485Z,0.40
2022-09-21T12:17:07.996Z,0.70
2022-09-21T12:19:40.979Z,0.80
2022-09-21T12:22:17.663Z,0.50
2022-09-21T12:24:49.895Z,0.50
2022-09-21T12:27:47.735Z,0.50
2022-09-21T12:30:17.037Z,0.70
2022-09-21T12:33:03.513Z,0.65
2022-09-21T12:35:39.829Z,0.52
2022-09-21T12:38:22.256Z,0.60
2022-09-21T12:41:10.850Z,0.60
2022-09-21T12:43:41.900Z,0.68
2022-09-21T12:46:20.557Z,0.40
2022-09-21T12:48:47.763Z,1.02
2022-09-21T12:51:38.391Z,0.47
2022-09-21T12:54:24.673Z,0.38
2022-09-21T12:57:23.222Z,0.38
2022-09-21T12:59:50.497Z,0.60
2022-09-21T13:02:56.792Z,0.43
2022-09-21T13:05:41.163Z,0.65
2022-09-21T13:08:15.182Z,0.85
2022-09-21T13:10:54.681Z,0.63
2022-09-21T13:13:33.231Z,0.40
2022-09-21T13:16:01.365Z,0.40
2022-09-21T13:18:39.860Z,0.43
2022-09-21T13:21:18.863Z,0.73
2022-09-21T13:23:56.891Z,0.43
2022-09-21T13:26:51.347Z,0.45
2022-09-21T13:29:20.850Z,0.70
2022-09-21T13:32:01.962Z,0.40
2022-09-21T13:34:35.268Z,0.60
2022-09-21T13:37:20.402Z,0.70
2022-09-21T13:40:02.238Z,0.90
2022-09-21T13:42:32.444Z,0.70
2022-09-21T13:45:06.574Z,0.70
2022-09-21T13:47:35.737Z,0.70
2022-09-21T13:50:31.462Z,0.68
2022-09-21T13:53:02.443Z,0.40
2022-09-21T13:55:31.041Z,0.47
2022-09-21T13:58:04.830Z,0.50
2022-09-21T14:00:50.701Z,0.60
2022-09-21T14:03:39.375Z,0.68
2022-09-21T14:06:19.452Z,1.20
2022-09-21T14:08:52.924Z,0.40
2022-09-21T14:11:36.222Z,0.40
2022-09-21T14:14:03.018Z,0.40
2022-09-21T14:16:39.771Z,0.40
2022-09-21T14:19:18.404Z,0.52
2022-09-21T14:22:20.675Z,0.30
2022-09-21T14:24:51.232Z,0.40
2022-09-21T14:27:25.403Z,0.40
2022-09-21T14:30:07.995Z,0.60
2022-09-21T14:32:43.027Z,0.30
2022-09-21T14:35:18.601Z,0.55
2022-09-21T14:37:56.054Z,0.30
2022-09-21T14:40:25.694Z,0.45
2022-09-21T14:42:55.090Z,0.32
2022-09-21T14:45:30.553Z,0.30
2022-09-21T14:48:17.415Z,0.43
2022-09-21T14:51:01.704Z,0.65
2022-09-21T14:54:07.336Z,0.45
2022-09-21T14:57:01.078Z,0.50
2022-09-21T14:59:48.641Z,0.32
2022-09-21T15:02:24.745Z,0.50
2022-09-21T15:05:04.461Z,0.32
2022-09-21T15:07:57.835Z,0.52
2022-09-21T15:10:55.476Z,0.40
2022-09-21T15:14:05.013Z,0.38
2022-09-21T15:16:47.103Z,0.32
2022-09-21T15:19:16.276Z,0.43
2022-09-21T15:21:46.292Z,0.68
2022-09-21T15:24:34.227Z,0.52
2022-09-21T15:27:10.112Z,0.40
2022-09-21T15:29:37.691Z,0.60
2022-09-21T15:32:06.658Z,0.28
2022-09-21T15:34:33.539Z,0.45
2022-09-21T15:37:19.844Z,0.50
2022-09-21T15:40:01.092Z,0.50
2022-09-21T15:42:29.718Z,0.38
2022-09-21T15:45:17.877Z,0.45
2022-09-21T15:47:45.282Z,0.40
2022-09-21T15:50:14.518Z,0.40
2022-09-21T15:52:54.757Z,0.40
2022-09-21T15:55:23.060Z,0.50
2022-09-21T15:57:53.449Z,0.45
2022-09-21T16:00:31.689Z,0.40
2022-09-21T16:03:16.045Z,0.50
2022-09-21T16:05:51.658Z,0.40
2022-09-21T16:08:30.298Z,0.55
2022-09-21T16:11:25.009Z,0.50
2022-09-21T16:14:36.886Z,0.52
2022-09-21T16:17:09.165Z,0.32
2022-09-21T16:20:23.564Z,0.50
2022-09-21T16:22:54.870Z,0.50
2022-09-21T16:25:30.026Z,0.40
2022-09-21T16:28:00.990Z,0.50
2022-09-21T16:30:55.071Z,0.52
2022-09-21T16:33:38.192Z,0.40
2022-09-21T16:36:26.104Z,0.40
2022-09-21T16:38:56.489Z,0.40
2022-09-21T16:41:29.253Z,0.45
2022-09-21T16:43:57.411Z,0.40
2022-09-21T16:46:26.513Z,0.60
2022-09-21T16:48:54.974Z,0.80
2022-09-21T16:51:25.544Z,0.60
2022-09-21T16:53:52.663Z,0.60
2022-09-21T16:56:19.858Z,0.60
2022-09-21T16:58:47.340Z,0.70
2022-09-21T17:01:20.740Z,1.00
2022-09-21T17:03:48.327Z,10.27
2022-09-21T17:06:21.532Z,2.38
2022-09-21T17:08:49.526Z,0.90
2022-09-21T17:11:20.176Z,1.60
2022-09-21T17:13:48.020Z,3.28
2022-09-21T17:16:17.999Z,2.58
2022-09-21T17:18:48.785Z,1.30
2022-09-21T17:21:16.465Z,1.20
2022-09-21T17:23:43.732Z,1.25
2022-09-21T17:26:19.293Z,1.30
2022-09-21T17:28:46.051Z,1.42
2022-09-21T17:31:14.861Z,1.20
2022-09-21T17:33:42.292Z,1.10
2022-09-21T17:36:13.799Z,1.50
2022-09-21T17:38:42.307Z,1.80
2022-09-21T17:41:28.991Z,3.30
2022-09-21T17:43:55.728Z,3.78
2022-09-21T17:46:44.615Z,3.03
2022-09-21T17:49:11.941Z,2.05
2022-09-21T17:51:57.685Z,2.70
2022-09-21T17:54:24.659Z,2.55
2022-09-21T17:56:59.211Z,2.38
2022-09-21T17:59:32.889Z,2.35
2022-09-21T18:02:12.372Z,2.33
2022-09-21T18:04:39.426Z,2.33
2022-09-21T18:07:06.618Z,2.88
2022-09-21T18:09:33.606Z,2.08
2022-09-21T18:12:29.201Z,2.58
2022-09-21T18:15:13.479Z,2.88
2022-09-21T18:18:12.513Z,3.30
2022-09-21T18:20:45.375Z,3.25
2022-09-21T18:23:19.302Z,4.88
2022-09-21T18:25:50.242Z,5.93
2022-09-21T18:28:29.007Z,7.22
2022-09-21T18:31:26.489Z,5.15
2022-09-21T18:34:14.006Z,5.45
2022-09-21T18:37:02.581Z,3.33
2022-09-21T18:40:03.409Z,3.40
2022-09-21T18:43:07.168Z,3.38
2022-09-21T18:45:45.676Z,2.70
2022-09-21T18:48:39.577Z,2.75
2022-09-21T18:51:36.738Z,2.63
2022-09-21T18:54:03.645Z,2.63
2022-09-21T18:56:36.938Z,2.72
2022-09-21T18:59:07.042Z,2.30
2022-09-21T19:01:34.503Z,2.92
2022-09-21T19:04:01.879Z,5.03
2022-09-21T19:06:40.187Z,3.95
2022-09-21T19:09:33.964Z,3.72
2022-09-21T19:12:23.383Z,4.75
2022-09-21T19:14:50.118Z,6.60
2022-09-21T19:17:39.173Z,6.00
2022-09-21T19:20:33.775Z,5.18
2022-09-21T19:23:18.818Z,3.55
2022-09-21T19:25:51.300Z,3.00
2022-09-21T19:28:36.412Z,1.95
2022-09-21T19:31:10.914Z,1.35
2022-09-21T19:33:50.068Z,1.67
2022-09-21T19:36:18.185Z,1.85
2022-09-21T19:38:45.129Z,1.20
2022-09-21T19:41:44.648Z,1.20
2022-09-21T19:44:32.489Z,1.50
2022-09-21T19:47:29.236Z,1.33
2022-09-21T19:50:18.835Z,1.42
2022-09-21T19:52:46.167Z,1.73
2022-09-21T19:55:37.871Z,1.27
2022-09-21T19:58:24.253Z,1.70
2022-09-21T20:00:53.463Z,1.33
2022-09-21T20:03:31.791Z,1.33
2022-09-21T20:06:09.907Z,1.83
2022-09-21T20:09:07.813Z,2.00
2022-09-21T20:11:50.513Z,1.73
2022-09-21T20:14:33.853Z,1.60
2022-09-21T20:17:04.808Z,1.55
2022-09-21T20:20:05.091Z,1.90
2022-09-21T20:22:41.858Z,1.80
2022-09-21T20:25:08.792Z,1.60
2022-09-21T20:27:40.409Z,1.85
2022-09-21T20:30:14.542Z,1.98
2022-09-21T20:32:45.446Z,1.75
2022-09-21T20:35:17.786Z,1.60
2022-09-21T20:37:45.350Z,2.42
2022-09-21T20:40:13.369Z,2.05
2022-09-21T20:42:41.084Z,1.77
2022-09-21T20:45:09.856Z,2.00
2022-09-21T20:47:37.211Z,1.85
2022-09-21T20:50:05.334Z,1.60
2022-09-21T20:52:32.600Z,2.10
2022-09-21T20:54:59.342Z,2.00
2022-09-21T20:57:26.065Z,2.60
2022-09-21T20:59:52.780Z,2.10
2022-09-21T21:02:19.585Z,2.45
2022-09-21T21:04:46.379Z,2.00
2022-09-21T21:07:13.091Z,2.15
2022-09-21T21:09:39.818Z,2.08
2022-09-21T21:12:06.929Z,2.03
2022-09-21T21:14:33.672Z,2.30
2022-09-21T21:17:00.470Z,1.92
2022-09-21T21:19:27.374Z,1.85
2022-09-21T21:21:54.249Z,2.00
2022-09-21T21:24:39.559Z,1.95
2022-09-21T21:27:16.164Z,2.15
2022-09-21T21:29:50.039Z,2.40
2022-09-21T21:32:18.266Z,2.30
2022-09-21T21:34:45.339Z,2.15
2022-09-21T21:37:13.547Z,2.13
2022-09-21T21:39:40.528Z,2.08
2022-09-21T21:42:07.527Z,2.10
2022-09-21T21:44:34.302Z,2.10
2022-09-21T21:47:20.915Z,2.75
2022-09-21T21:49:48.395Z,2.17
2022-09-21T21:52:15.179Z,2.00
2022-09-21T21:54:41.925Z,2.40
2022-09-21T21:57:09.919Z,2.05
2022-09-21T21:59:37.039Z,2.15
2022-09-21T22:02:04.351Z,2.00
2022-09-21T22:04:31.477Z,1.90
2022-09-21T22:06:58.252Z,2.15
2022-09-21T22:09:25.038Z,2.22
2022-09-21T22:11:51.971Z,2.40
2022-09-21T22:14:18.884Z,2.15
2022-09-21T22:16:46.151Z,2.35
2022-09-21T22:19:12.946Z,2.45
2022-09-21T22:21:43.211Z,2.40
2022-09-21T22:24:10.576Z,2.47
2022-09-21T22:26:43.423Z,2.20
2022-09-21T22:29:13.379Z,2.38
2022-09-21T22:31:42.678Z,2.40
2022-09-21T22:34:09.860Z,2.42
2022-09-21T22:36:37.615Z,2.40
2022-09-21T22:39:06.867Z,2.58
2022-09-21T22:41:36.424Z,2.50
2022-09-21T22:44:03.776Z,2.83
2022-09-21T22:46:31.610Z,2.90
2022-09-21T22:49:00.330Z,2.60
2022-09-21T22:51:27.892Z,3.03
2022-09-21T22:53:55.157Z,3.10
2022-09-21T22:56:24.680Z,3.17
2022-09-21T22:58:54.277Z,2.65
2022-09-21T23:01:26.762Z,2.75
2022-09-21T23:03:57.466Z,2.65
2022-09-21T23:06:29.131Z,3.13
2022-09-21T23:08:57.317Z,2.80
2022-09-21T23:11:32.740Z,3.10
2022-09-21T23:14:00.714Z,2.90
2022-09-21T23:16:29.252Z,2.90
2022-09-21T23:18:57.730Z,3.10
2022-09-21T23:21:26.766Z,3.20
2022-09-21T23:23:59.961Z,3.30
2022-09-21T23:26:28.970Z,3.10
2022-09-21T23:29:04.421Z,2.90
2022-09-21T23:31:32.173Z,3.08
2022-09-21T23:34:03.471Z,2.80
2022-09-21T23:36:31.679Z,3.22
2022-09-21T23:38:58.660Z,3.33
2022-09-21T23:41:31.136Z,3.03
2022-09-21T23:43:58.336Z,3.63
2022-09-21T23:46:27.703Z,3.42
2022-09-21T23:48:55.250Z,3.15
2022-09-21T23:51:22.309Z,3.92
2022-09-21T23:53:49.743Z,3.22
2022-09-21T23:56:19.162Z,3.92
2022-09-21T23:58:46.920Z,3.60
